Delray, West Virginia
Current Conditions -  °F | °C
As of 4:35 AM on Friday 28 Nov 2014 (Local Time) from KOKV Reporting Station
Broken Clouds Broken Clouds  
Wind Chill: 24°   Ceiling: 3100
Heat Index: 32°   Visibility: 10mi
Dew Point: 21°   Wind: 9mph
Humidity: 64%   Direction: 270°W
Pressure: 30.22"   Gusts: 16mph
Location:  39.21°N, 78.59°W
Report Text: KOKV 280935Z AUTO 27008G14KT 10SM BKN031 BKN041 BKN050 00/M06 A3022 RMK AO2
Loading
Personal Weather Stations






























Interactive Weather Map New forecast layout! Learn more

10-Day Weather Forecast

Advertisements
Track Severe Weather on mobile